sensor_id;sensor_type;location;lat;lon;timestamp;temperature;humidity
45685;DHT22;46836;48.388;16.210;2023-06-14T00:01:43;14.20;99.90
45685;DHT22;46836;48.388;16.210;2023-06-14T00:04:13;14.10;99.90
45685;DHT22;46836;48.388;16.210;2023-06-14T00:06:40;14.10;99.90
45685;DHT22;46836;48.388;16.210;2023-06-14T00:09:08;14.00;99.90
45685;DHT22;46836;48.388;16.210;2023-06-14T00:11:36;14.00;99.90
45685;DHT22;46836;48.388;16.210;2023-06-14T00:14:03;14.00;99.90
45685;DHT22;46836;48.388;16.210;2023-06-14T00:16:30;14.00;99.90
45685;DHT22;46836;48.388;16.210;2023-06-14T00:18:59;13.90;99.90
45685;DHT22;46836;48.388;16.210;2023-06-14T00:21:27;13.90;99.90
45685;DHT22;46836;48.388;16.210;2023-06-14T00:23:56;13.90;99.90
45685;DHT22;46836;48.388;16.210;2023-06-14T00:26:24;13.90;99.90
45685;DHT22;46836;48.388;16.210;2023-06-14T00:28:53;13.90;99.90
45685;DHT22;46836;48.388;16.210;2023-06-14T00:31:21;13.90;99.90
45685;DHT22;46836;48.388;16.210;2023-06-14T00:33:48;13.90;99.90
45685;DHT22;46836;48.388;16.210;2023-06-14T00:36:15;13.90;99.90
45685;DHT22;46836;48.388;16.210;2023-06-14T00:38:42;13.80;99.90
45685;DHT22;46836;48.388;16.210;2023-06-14T00:41:09;13.80;99.90
45685;DHT22;46836;48.388;16.210;2023-06-14T00:43:36;13.80;99.90
45685;DHT22;46836;48.388;16.210;2023-06-14T00:46:03;13.80;99.90
45685;DHT22;46836;48.388;16.210;2023-06-14T00:48:31;13.80;99.90
45685;DHT22;46836;48.388;16.210;2023-06-14T00:51:00;13.80;99.90
45685;DHT22;46836;48.388;16.210;2023-06-14T00:53:31;13.80;99.90
45685;DHT22;46836;48.388;16.210;2023-06-14T00:56:03;13.80;99.90
45685;DHT22;46836;48.388;16.210;2023-06-14T00:58:30;13.70;99.90
45685;DHT22;46836;48.388;16.210;2023-06-14T01:00:59;13.70;99.90
45685;DHT22;46836;48.388;16.210;2023-06-14T01:03:26;13.70;99.90
45685;DHT22;46836;48.388;16.210;2023-06-14T01:06:20;13.70;99.90
45685;DHT22;46836;48.388;16.210;2023-06-14T01:09:03;13.70;99.90
45685;DHT22;46836;48.388;16.210;2023-06-14T01:11:41;13.70;99.90
45685;DHT22;46836;48.388;16.210;2023-06-14T01:14:13;13.70;99.90
45685;DHT22;46836;48.388;16.210;2023-06-14T01:16:41;13.70;99.90
45685;DHT22;46836;48.388;16.210;2023-06-14T01:19:12;13.70;99.90
45685;DHT22;46836;48.388;16.210;2023-06-14T01:21:40;13.70;99.90
45685;DHT22;46836;48.388;16.210;2023-06-14T01:24:09;13.60;99.90
45685;DHT22;46836;48.388;16.210;2023-06-14T01:26:38;13.60;99.90
45685;DHT22;46836;48.388;16.210;2023-06-14T01:29:14;13.60;99.90
45685;DHT22;46836;48.388;16.210;2023-06-14T01:31:45;13.60;99.90
45685;DHT22;46836;48.388;16.210;2023-06-14T01:34:13;13.60;99.90
45685;DHT22;46836;48.388;16.210;2023-06-14T01:36:42;13.60;99.90
45685;DHT22;46836;48.388;16.210;2023-06-14T01:39:14;13.60;99.90
45685;DHT22;46836;48.388;16.210;2023-06-14T01:41:45;13.60;99.90
45685;DHT22;46836;48.388;16.210;2023-06-14T01:44:16;13.50;99.90
45685;DHT22;46836;48.388;16.210;2023-06-14T01:46:45;13.40;99.90
45685;DHT22;46836;48.388;16.210;2023-06-14T01:49:12;13.40;99.90
45685;DHT22;46836;48.388;16.210;2023-06-14T01:51:40;13.40;99.90
45685;DHT22;46836;48.388;16.210;2023-06-14T01:54:07;13.40;99.90
45685;DHT22;46836;48.388;16.210;2023-06-14T01:56:34;13.40;99.90
45685;DHT22;46836;48.388;16.210;2023-06-14T01:59:01;13.40;99.90
45685;DHT22;46836;48.388;16.210;2023-06-14T02:01:28;13.40;99.90
45685;DHT22;46836;48.388;16.210;2023-06-14T02:03:55;13.30;99.90
45685;DHT22;46836;48.388;16.210;2023-06-14T02:06:23;13.30;99.90
45685;DHT22;46836;48.388;16.210;2023-06-14T02:08:51;13.20;99.90
45685;DHT22;46836;48.388;16.210;2023-06-14T02:11:18;13.10;99.90
45685;DHT22;46836;48.388;16.210;2023-06-14T02:13:45;13.10;99.90
45685;DHT22;46836;48.388;16.210;2023-06-14T02:16:12;13.10;99.90
45685;DHT22;46836;48.388;16.210;2023-06-14T02:18:41;13.10;99.90
45685;DHT22;46836;48.388;16.210;2023-06-14T02:21:08;13.10;99.90
45685;DHT22;46836;48.388;16.210;2023-06-14T02:23:35;13.10;99.90
45685;DHT22;46836;48.388;16.210;2023-06-14T02:26:02;13.10;99.90
45685;DHT22;46836;48.388;16.210;2023-06-14T02:28:30;13.10;99.90
45685;DHT22;46836;48.388;16.210;2023-06-14T02:30:57;13.10;99.90
45685;DHT22;46836;48.388;16.210;2023-06-14T02:33:25;13.10;99.90
45685;DHT22;46836;48.388;16.210;2023-06-14T02:35:52;13.20;99.90
45685;DHT22;46836;48.388;16.210;2023-06-14T02:38:19;13.30;99.90
45685;DHT22;46836;48.388;16.210;2023-06-14T02:40:47;13.30;99.90
45685;DHT22;46836;48.388;16.210;2023-06-14T02:43:14;13.30;99.90
45685;DHT22;46836;48.388;16.210;2023-06-14T02:45:44;13.30;99.90
45685;DHT22;46836;48.388;16.210;2023-06-14T02:48:11;13.30;99.90
45685;DHT22;46836;48.388;16.210;2023-06-14T02:50:38;13.30;99.90
45685;DHT22;46836;48.388;16.210;2023-06-14T02:53:05;13.30;99.90
45685;DHT22;46836;48.388;16.210;2023-06-14T02:55:33;13.30;99.90
45685;DHT22;46836;48.388;16.210;2023-06-14T02:58:00;13.30;99.90
45685;DHT22;46836;48.388;16.210;2023-06-14T03:00:27;13.30;99.90
45685;DHT22;46836;48.388;16.210;2023-06-14T03:02:56;13.30;99.90
45685;DHT22;46836;48.388;16.210;2023-06-14T03:05:24;13.30;99.90
45685;DHT22;46836;48.388;16.210;2023-06-14T03:07:51;13.20;99.90
45685;DHT22;46836;48.388;16.210;2023-06-14T03:10:20;13.10;99.90
45685;DHT22;46836;48.388;16.210;2023-06-14T03:12:49;13.10;99.90
45685;DHT22;46836;48.388;16.210;2023-06-14T03:15:16;13.00;99.90
45685;DHT22;46836;48.388;16.210;2023-06-14T03:17:44;13.00;99.90
45685;DHT22;46836;48.388;16.210;2023-06-14T03:20:12;13.00;99.90
45685;DHT22;46836;48.388;16.210;2023-06-14T03:22:40;13.00;99.90
45685;DHT22;46836;48.388;16.210;2023-06-14T03:25:08;13.00;99.90
45685;DHT22;46836;48.388;16.210;2023-06-14T03:27:37;13.00;99.90
45685;DHT22;46836;48.388;16.210;2023-06-14T03:30:05;13.00;99.90
45685;DHT22;46836;48.388;16.210;2023-06-14T03:32:32;13.00;99.90
45685;DHT22;46836;48.388;16.210;2023-06-14T03:35:00;13.00;99.90
45685;DHT22;46836;48.388;16.210;2023-06-14T03:37:27;13.00;99.90
45685;DHT22;46836;48.388;16.210;2023-06-14T03:39:54;13.00;99.90
45685;DHT22;46836;48.388;16.210;2023-06-14T03:42:21;13.10;99.90
45685;DHT22;46836;48.388;16.210;2023-06-14T03:44:48;13.10;99.90
45685;DHT22;46836;48.388;16.210;2023-06-14T03:47:15;13.10;99.90
45685;DHT22;46836;48.388;16.210;2023-06-14T03:49:43;13.10;99.90
45685;DHT22;46836;48.388;16.210;2023-06-14T03:52:10;13.20;99.90
45685;DHT22;46836;48.388;16.210;2023-06-14T03:54:38;13.20;99.90
45685;DHT22;46836;48.388;16.210;2023-06-14T03:57:08;13.20;99.90
45685;DHT22;46836;48.388;16.210;2023-06-14T03:59:35;13.20;99.90
45685;DHT22;46836;48.388;16.210;2023-06-14T04:02:02;13.30;99.90
45685;DHT22;46836;48.388;16.210;2023-06-14T04:04:30;13.30;99.90
45685;DHT22;46836;48.388;16.210;2023-06-14T04:06:57;13.40;99.90
45685;DHT22;46836;48.388;16.210;2023-06-14T04:09:25;13.40;99.90
45685;DHT22;46836;48.388;16.210;2023-06-14T04:11:53;13.50;99.90
45685;DHT22;46836;48.388;16.210;2023-06-14T04:14:20;13.50;99.90
45685;DHT22;46836;48.388;16.210;2023-06-14T04:16:48;13.50;99.90
45685;DHT22;46836;48.388;16.210;2023-06-14T04:19:16;13.50;99.90
45685;DHT22;46836;48.388;16.210;2023-06-14T04:21:43;13.60;99.90
45685;DHT22;46836;48.388;16.210;2023-06-14T04:24:10;13.60;99.90
45685;DHT22;46836;48.388;16.210;2023-06-14T04:26:44;13.60;99.90
45685;DHT22;46836;48.388;16.210;2023-06-14T04:29:12;13.60;99.90
45685;DHT22;46836;48.388;16.210;2023-06-14T04:31:43;13.60;99.90
45685;DHT22;46836;48.388;16.210;2023-06-14T04:34:12;13.70;99.90
45685;DHT22;46836;48.388;16.210;2023-06-14T04:36:43;13.70;99.90
45685;DHT22;46836;48.388;16.210;2023-06-14T04:39:20;13.70;99.90
45685;DHT22;46836;48.388;16.210;2023-06-14T04:41:48;13.70;99.90
45685;DHT22;46836;48.388;16.210;2023-06-14T04:44:19;13.70;99.90
45685;DHT22;46836;48.388;16.210;2023-06-14T04:46:46;13.80;99.90
45685;DHT22;46836;48.388;16.210;2023-06-14T04:49:15;13.80;99.90
45685;DHT22;46836;48.388;16.210;2023-06-14T04:51:45;13.90;99.90
45685;DHT22;46836;48.388;16.210;2023-06-14T04:54:14;13.90;99.90
45685;DHT22;46836;48.388;16.210;2023-06-14T04:56:42;14.00;99.90
45685;DHT22;46836;48.388;16.210;2023-06-14T04:59:09;14.10;99.90
45685;DHT22;46836;48.388;16.210;2023-06-14T05:01:38;14.10;99.90
45685;DHT22;46836;48.388;16.210;2023-06-14T05:04:05;14.10;99.90
45685;DHT22;46836;48.388;16.210;2023-06-14T05:06:33;14.10;99.90
45685;DHT22;46836;48.388;16.210;2023-06-14T05:09:00;14.10;99.90
45685;DHT22;46836;48.388;16.210;2023-06-14T05:11:27;14.20;99.90
45685;DHT22;46836;48.388;16.210;2023-06-14T05:13:55;14.20;99.90
45685;DHT22;46836;48.388;16.210;2023-06-14T05:16:22;14.30;99.90
45685;DHT22;46836;48.388;16.210;2023-06-14T05:18:52;14.30;99.90
45685;DHT22;46836;48.388;16.210;2023-06-14T05:21:19;14.40;99.90
45685;DHT22;46836;48.388;16.210;2023-06-14T05:23:47;14.50;99.90
45685;DHT22;46836;48.388;16.210;2023-06-14T05:26:14;14.70;99.90
45685;DHT22;46836;48.388;16.210;2023-06-14T05:28:41;14.70;99.90
45685;DHT22;46836;48.388;16.210;2023-06-14T05:31:08;14.80;99.90
45685;DHT22;46836;48.388;16.210;2023-06-14T05:33:36;14.80;99.90
45685;DHT22;46836;48.388;16.210;2023-06-14T05:36:03;14.90;99.90
45685;DHT22;46836;48.388;16.210;2023-06-14T05:38:32;15.00;99.90
45685;DHT22;46836;48.388;16.210;2023-06-14T05:40:59;15.20;99.90
45685;DHT22;46836;48.388;16.210;2023-06-14T05:43:26;15.30;99.90
45685;DHT22;46836;48.388;16.210;2023-06-14T05:45:53;15.40;99.90
45685;DHT22;46836;48.388;16.210;2023-06-14T05:48:20;15.50;99.90
45685;DHT22;46836;48.388;16.210;2023-06-14T05:50:48;15.70;99.90
45685;DHT22;46836;48.388;16.210;2023-06-14T05:53:15;15.80;99.90
45685;DHT22;46836;48.388;16.210;2023-06-14T05:55:42;15.90;99.90
45685;DHT22;46836;48.388;16.210;2023-06-14T05:58:09;15.90;99.90
45685;DHT22;46836;48.388;16.210;2023-06-14T06:00:37;15.90;99.90
45685;DHT22;46836;48.388;16.210;2023-06-14T06:03:04;15.90;99.90
45685;DHT22;46836;48.388;16.210;2023-06-14T06:05:31;16.00;99.90
45685;DHT22;46836;48.388;16.210;2023-06-14T06:07:59;16.10;99.90
45685;DHT22;46836;48.388;16.210;2023-06-14T06:10:27;16.20;99.90
45685;DHT22;46836;48.388;16.210;2023-06-14T06:12:54;16.40;99.90
45685;DHT22;46836;48.388;16.210;2023-06-14T06:15:21;16.40;99.90
45685;DHT22;46836;48.388;16.210;2023-06-14T06:17:48;16.40;99.90
45685;DHT22;46836;48.388;16.210;2023-06-14T06:20:23;16.40;99.90
45685;DHT22;46836;48.388;16.210;2023-06-14T06:22:57;16.50;99.90
45685;DHT22;46836;48.388;16.210;2023-06-14T06:25:25;16.60;99.90
45685;DHT22;46836;48.388;16.210;2023-06-14T06:27:57;16.60;99.90
45685;DHT22;46836;48.388;16.210;2023-06-14T06:30:25;16.60;99.90
45685;DHT22;46836;48.388;16.210;2023-06-14T06:32:53;16.70;99.90
45685;DHT22;46836;48.388;16.210;2023-06-14T06:35:20;16.90;99.90
45685;DHT22;46836;48.388;16.210;2023-06-14T06:37:47;17.00;99.90
45685;DHT22;46836;48.388;16.210;2023-06-14T06:40:14;17.10;99.90
45685;DHT22;46836;48.388;16.210;2023-06-14T06:42:42;17.20;99.90
45685;DHT22;46836;48.388;16.210;2023-06-14T06:45:09;17.30;99.90
45685;DHT22;46836;48.388;16.210;2023-06-14T06:47:36;17.40;99.90
45685;DHT22;46836;48.388;16.210;2023-06-14T06:50:04;17.50;99.90
45685;DHT22;46836;48.388;16.210;2023-06-14T06:52:31;17.60;99.90
45685;DHT22;46836;48.388;16.210;2023-06-14T06:54:58;17.70;99.90
45685;DHT22;46836;48.388;16.210;2023-06-14T06:57:25;17.80;99.90
45685;DHT22;46836;48.388;16.210;2023-06-14T06:59:52;17.90;99.90
45685;DHT22;46836;48.388;16.210;2023-06-14T07:02:19;18.00;99.90
45685;DHT22;46836;48.388;16.210;2023-06-14T07:04:46;18.00;99.90
45685;DHT22;46836;48.388;16.210;2023-06-14T07:07:14;18.10;99.90
45685;DHT22;46836;48.388;16.210;2023-06-14T07:09:41;18.20;99.90
45685;DHT22;46836;48.388;16.210;2023-06-14T07:12:09;18.20;99.90
45685;DHT22;46836;48.388;16.210;2023-06-14T07:14:38;18.40;99.90
45685;DHT22;46836;48.388;16.210;2023-06-14T07:17:05;18.50;99.90
45685;DHT22;46836;48.388;16.210;2023-06-14T07:19:32;18.60;99.90
45685;DHT22;46836;48.388;16.210;2023-06-14T07:22:00;18.70;99.90
45685;DHT22;46836;48.388;16.210;2023-06-14T07:24:27;18.70;99.90
45685;DHT22;46836;48.388;16.210;2023-06-14T07:26:56;18.80;99.90
45685;DHT22;46836;48.388;16.210;2023-06-14T07:29:23;18.90;99.90
45685;DHT22;46836;48.388;16.210;2023-06-14T07:31:50;18.90;99.90
45685;DHT22;46836;48.388;16.210;2023-06-14T07:34:17;19.00;99.90
45685;DHT22;46836;48.388;16.210;2023-06-14T07:36:44;19.10;99.90
45685;DHT22;46836;48.388;16.210;2023-06-14T07:39:12;19.20;99.90
45685;DHT22;46836;48.388;16.210;2023-06-14T07:41:39;19.30;99.90
45685;DHT22;46836;48.388;16.210;2023-06-14T07:44:06;19.40;99.90
45685;DHT22;46836;48.388;16.210;2023-06-14T07:46:33;19.50;99.90
45685;DHT22;46836;48.388;16.210;2023-06-14T07:49:01;19.60;99.90
45685;DHT22;46836;48.388;16.210;2023-06-14T07:51:28;19.70;99.90
45685;DHT22;46836;48.388;16.210;2023-06-14T07:53:56;19.70;99.90
45685;DHT22;46836;48.388;16.210;2023-06-14T07:56:23;19.80;99.90
45685;DHT22;46836;48.388;16.210;2023-06-14T07:58:50;19.70;99.90
45685;DHT22;46836;48.388;16.210;2023-06-14T08:01:17;19.70;99.90
45685;DHT22;46836;48.388;16.210;2023-06-14T08:03:44;19.70;99.90
45685;DHT22;46836;48.388;16.210;2023-06-14T08:06:12;19.70;99.90
45685;DHT22;46836;48.388;16.210;2023-06-14T08:08:39;19.60;99.90
45685;DHT22;46836;48.388;16.210;2023-06-14T08:11:06;19.70;99.90
45685;DHT22;46836;48.388;16.210;2023-06-14T08:13:33;19.90;99.90
45685;DHT22;46836;48.388;16.210;2023-06-14T08:16:00;19.90;99.90
45685;DHT22;46836;48.388;16.210;2023-06-14T08:18:28;20.00;99.90
45685;DHT22;46836;48.388;16.210;2023-06-14T08:20:57;20.20;99.90
45685;DHT22;46836;48.388;16.210;2023-06-14T08:23:24;20.30;99.90
45685;DHT22;46836;48.388;16.210;2023-06-14T08:25:51;20.50;99.90
45685;DHT22;46836;48.388;16.210;2023-06-14T08:28:19;20.50;99.90
45685;DHT22;46836;48.388;16.210;2023-06-14T08:30:46;20.50;99.90
45685;DHT22;46836;48.388;16.210;2023-06-14T08:33:13;20.50;99.90
45685;DHT22;46836;48.388;16.210;2023-06-14T08:35:43;20.60;99.90
45685;DHT22;46836;48.388;16.210;2023-06-14T08:38:11;20.60;99.90
45685;DHT22;46836;48.388;16.210;2023-06-14T08:40:40;20.60;99.90
45685;DHT22;46836;48.388;16.210;2023-06-14T08:43:08;20.60;99.90
45685;DHT22;46836;48.388;16.210;2023-06-14T08:45:36;20.60;99.90
45685;DHT22;46836;48.388;16.210;2023-06-14T08:48:04;20.70;99.90
45685;DHT22;46836;48.388;16.210;2023-06-14T08:50:34;20.70;99.90
45685;DHT22;46836;48.388;16.210;2023-06-14T08:53:05;20.80;99.90
45685;DHT22;46836;48.388;16.210;2023-06-14T08:55:38;20.80;99.90
45685;DHT22;46836;48.388;16.210;2023-06-14T08:58:11;20.80;99.90
45685;DHT22;46836;48.388;16.210;2023-06-14T09:00:44;20.80;99.90
45685;DHT22;46836;48.388;16.210;2023-06-14T09:03:12;20.90;99.90
45685;DHT22;46836;48.388;16.210;2023-06-14T09:05:41;21.00;99.90
45685;DHT22;46836;48.388;16.210;2023-06-14T09:08:08;21.10;99.90
45685;DHT22;46836;48.388;16.210;2023-06-14T09:10:37;21.20;99.90
45685;DHT22;46836;48.388;16.210;2023-06-14T09:13:05;21.20;99.90
45685;DHT22;46836;48.388;16.210;2023-06-14T09:15:36;21.20;99.90
45685;DHT22;46836;48.388;16.210;2023-06-14T09:18:03;21.40;99.90
45685;DHT22;46836;48.388;16.210;2023-06-14T09:20:32;21.40;99.90
45685;DHT22;46836;48.388;16.210;2023-06-14T09:23:00;21.30;99.90
45685;DHT22;46836;48.388;16.210;2023-06-14T09:25:30;21.50;99.90
45685;DHT22;46836;48.388;16.210;2023-06-14T09:28:08;21.70;99.90
45685;DHT22;46836;48.388;16.210;2023-06-14T09:30:37;21.90;99.90
45685;DHT22;46836;48.388;16.210;2023-06-14T09:33:05;22.10;99.90
45685;DHT22;46836;48.388;16.210;2023-06-14T09:35:32;22.20;99.90
45685;DHT22;46836;48.388;16.210;2023-06-14T09:38:00;22.30;99.90
45685;DHT22;46836;48.388;16.210;2023-06-14T09:40:27;22.50;99.90
45685;DHT22;46836;48.388;16.210;2023-06-14T09:42:55;22.60;99.90
45685;DHT22;46836;48.388;16.210;2023-06-14T09:45:26;22.70;99.90
45685;DHT22;46836;48.388;16.210;2023-06-14T09:47:57;22.80;99.90
45685;DHT22;46836;48.388;16.210;2023-06-14T09:50:34;22.90;99.90
45685;DHT22;46836;48.388;16.210;2023-06-14T09:53:06;22.90;99.90
45685;DHT22;46836;48.388;16.210;2023-06-14T09:55:36;23.00;99.90
45685;DHT22;46836;48.388;16.210;2023-06-14T09:58:08;23.10;99.90
45685;DHT22;46836;48.388;16.210;2023-06-14T10:00:37;23.10;98.90
45685;DHT22;46836;48.388;16.210;2023-06-14T10:03:16;23.20;99.90
45685;DHT22;46836;48.388;16.210;2023-06-14T10:05:46;23.30;99.90
45685;DHT22;46836;48.388;16.210;2023-06-14T10:08:17;23.40;99.50
45685;DHT22;46836;48.388;16.210;2023-06-14T10:10:45;23.40;99.40
45685;DHT22;46836;48.388;16.210;2023-06-14T10:13:13;23.50;99.50
45685;DHT22;46836;48.388;16.210;2023-06-14T10:17:00;23.50;99.90
45685;DHT22;46836;48.388;16.210;2023-06-14T10:24:18;23.80;98.10
45685;DHT22;46836;48.388;16.210;2023-06-14T10:26:54;23.60;97.00
45685;DHT22;46836;48.388;16.210;2023-06-14T10:29:27;23.50;96.40
45685;DHT22;46836;48.388;16.210;2023-06-14T10:32:00;23.30;99.00
45685;DHT22;46836;48.388;16.210;2023-06-14T10:34:29;23.10;98.80
45685;DHT22;46836;48.388;16.210;2023-06-14T10:37:06;23.10;98.90
45685;DHT22;46836;48.388;16.210;2023-06-14T10:39:41;22.90;96.80
45685;DHT22;46836;48.388;16.210;2023-06-14T10:42:09;22.70;98.80
45685;DHT22;46836;48.388;16.210;2023-06-14T10:44:38;22.50;99.20
45685;DHT22;46836;48.388;16.210;2023-06-14T10:50:05;23.00;99.20
45685;DHT22;46836;48.388;16.210;2023-06-14T10:52:35;23.30;98.30
45685;DHT22;46836;48.388;16.210;2023-06-14T10:55:15;23.40;98.10
45685;DHT22;46836;48.388;16.210;2023-06-14T10:57:51;23.30;96.00
45685;DHT22;46836;48.388;16.210;2023-06-14T11:00:22;23.30;96.80
45685;DHT22;46836;48.388;16.210;2023-06-14T11:11:06;23.60;96.50
45685;DHT22;46836;48.388;16.210;2023-06-14T11:13:38;23.60;97.50
45685;DHT22;46836;48.388;16.210;2023-06-14T11:16:17;23.60;97.00
45685;DHT22;46836;48.388;16.210;2023-06-14T11:18:46;23.50;96.50
45685;DHT22;46836;48.388;16.210;2023-06-14T11:21:17;23.60;97.20
45685;DHT22;46836;48.388;16.210;2023-06-14T11:23:52;23.70;95.40
45685;DHT22;46836;48.388;16.210;2023-06-14T11:26:27;23.90;95.60
45685;DHT22;46836;48.388;16.210;2023-06-14T11:28:58;24.00;95.90
45685;DHT22;46836;48.388;16.210;2023-06-14T11:31:27;24.00;94.80
45685;DHT22;46836;48.388;16.210;2023-06-14T11:33:59;24.00;96.50
45685;DHT22;46836;48.388;16.210;2023-06-14T11:36:28;24.20;96.30
45685;DHT22;46836;48.388;16.210;2023-06-14T11:39:01;24.40;97.00
45685;DHT22;46836;48.388;16.210;2023-06-14T11:41:37;24.50;95.40
45685;DHT22;46836;48.388;16.210;2023-06-14T11:44:05;24.50;94.60
45685;DHT22;46836;48.388;16.210;2023-06-14T11:46:33;24.60;95.60
45685;DHT22;46836;48.388;16.210;2023-06-14T11:49:02;24.50;95.60
45685;DHT22;46836;48.388;16.210;2023-06-14T11:51:35;24.50;95.20
45685;DHT22;46836;48.388;16.210;2023-06-14T11:54:03;24.30;95.10
45685;DHT22;46836;48.388;16.210;2023-06-14T11:56:32;24.30;94.60
45685;DHT22;46836;48.388;16.210;2023-06-14T11:59:03;24.30;94.40
45685;DHT22;46836;48.388;16.210;2023-06-14T12:01:36;24.40;94.30
45685;DHT22;46836;48.388;16.210;2023-06-14T12:04:05;24.60;93.70
45685;DHT22;46836;48.388;16.210;2023-06-14T12:06:32;24.70;94.20
45685;DHT22;46836;48.388;16.210;2023-06-14T12:09:04;24.90;95.50
45685;DHT22;46836;48.388;16.210;2023-06-14T12:11:34;25.00;94.20
45685;DHT22;46836;48.388;16.210;2023-06-14T12:14:05;25.20;93.50
45685;DHT22;46836;48.388;16.210;2023-06-14T12:16:34;25.30;93.00
45685;DHT22;46836;48.388;16.210;2023-06-14T12:19:16;25.30;93.40
45685;DHT22;46836;48.388;16.210;2023-06-14T12:21:47;25.30;91.20
45685;DHT22;46836;48.388;16.210;2023-06-14T12:24:19;25.30;91.40
45685;DHT22;46836;48.388;16.210;2023-06-14T12:26:46;25.10;89.70
45685;DHT22;46836;48.388;16.210;2023-06-14T12:29:14;25.10;92.30
45685;DHT22;46836;48.388;16.210;2023-06-14T12:31:41;25.20;92.10
45685;DHT22;46836;48.388;16.210;2023-06-14T12:34:09;25.00;91.80
45685;DHT22;46836;48.388;16.210;2023-06-14T12:36:36;24.80;92.40
45685;DHT22;46836;48.388;16.210;2023-06-14T12:39:08;24.40;92.10
45685;DHT22;46836;48.388;16.210;2023-06-14T12:41:36;24.50;93.40
45685;DHT22;46836;48.388;16.210;2023-06-14T12:44:04;24.70;93.40
45685;DHT22;46836;48.388;16.210;2023-06-14T12:46:31;24.90;92.90
45685;DHT22;46836;48.388;16.210;2023-06-14T12:48:59;24.80;92.00
45685;DHT22;46836;48.388;16.210;2023-06-14T12:51:27;24.90;92.40
45685;DHT22;46836;48.388;16.210;2023-06-14T12:53:54;24.70;91.80
45685;DHT22;46836;48.388;16.210;2023-06-14T12:56:21;24.70;92.00
45685;DHT22;46836;48.388;16.210;2023-06-14T12:58:50;24.90;92.10
45685;DHT22;46836;48.388;16.210;2023-06-14T13:01:18;25.10;92.20
45685;DHT22;46836;48.388;16.210;2023-06-14T13:03:48;25.10;92.20
45685;DHT22;46836;48.388;16.210;2023-06-14T13:06:18;25.30;91.50
45685;DHT22;46836;48.388;16.210;2023-06-14T13:08:45;25.50;91.70
45685;DHT22;46836;48.388;16.210;2023-06-14T13:11:12;25.50;91.30
45685;DHT22;46836;48.388;16.210;2023-06-14T13:13:39;25.30;90.40
45685;DHT22;46836;48.388;16.210;2023-06-14T13:16:06;24.90;90.00
45685;DHT22;46836;48.388;16.210;2023-06-14T13:18:33;24.50;90.60
45685;DHT22;46836;48.388;16.210;2023-06-14T13:21:01;24.30;91.90
45685;DHT22;46836;48.388;16.210;2023-06-14T13:23:28;24.40;91.80
45685;DHT22;46836;48.388;16.210;2023-06-14T13:25:55;24.60;92.60
45685;DHT22;46836;48.388;16.210;2023-06-14T13:28:22;24.50;90.80
45685;DHT22;46836;48.388;16.210;2023-06-14T13:30:49;24.70;91.40
45685;DHT22;46836;48.388;16.210;2023-06-14T13:33:16;24.60;91.00
45685;DHT22;46836;48.388;16.210;2023-06-14T13:35:43;24.90;91.10
45685;DHT22;46836;48.388;16.210;2023-06-14T13:38:11;25.20;91.40
45685;DHT22;46836;48.388;16.210;2023-06-14T13:40:39;25.50;90.50
45685;DHT22;46836;48.388;16.210;2023-06-14T13:43:06;25.60;91.20
45685;DHT22;46836;48.388;16.210;2023-06-14T13:45:33;25.80;91.00
45685;DHT22;46836;48.388;16.210;2023-06-14T13:48:02;25.80;90.60
45685;DHT22;46836;48.388;16.210;2023-06-14T13:50:29;25.80;90.00
45685;DHT22;46836;48.388;16.210;2023-06-14T13:52:56;25.80;90.10
45685;DHT22;46836;48.388;16.210;2023-06-14T13:55:23;25.70;90.00
45685;DHT22;46836;48.388;16.210;2023-06-14T13:57:50;25.60;89.00
45685;DHT22;46836;48.388;16.210;2023-06-14T14:00:18;25.10;85.30
45685;DHT22;46836;48.388;16.210;2023-06-14T14:02:49;24.80;89.10
45685;DHT22;46836;48.388;16.210;2023-06-14T14:05:17;25.00;90.70
45685;DHT22;46836;48.388;16.210;2023-06-14T14:07:45;25.00;90.30
45685;DHT22;46836;48.388;16.210;2023-06-14T14:10:12;25.20;90.90
45685;DHT22;46836;48.388;16.210;2023-06-14T14:12:41;25.30;90.80
45685;DHT22;46836;48.388;16.210;2023-06-14T14:15:08;25.40;90.40
45685;DHT22;46836;48.388;16.210;2023-06-14T14:17:40;25.30;88.70
45685;DHT22;46836;48.388;16.210;2023-06-14T14:20:08;25.20;90.10
45685;DHT22;46836;48.388;16.210;2023-06-14T14:22:36;25.00;89.20
45685;DHT22;46836;48.388;16.210;2023-06-14T14:25:03;25.10;89.90
45685;DHT22;46836;48.388;16.210;2023-06-14T14:27:30;25.30;91.10
45685;DHT22;46836;48.388;16.210;2023-06-14T14:29:57;25.30;88.30
45685;DHT22;46836;48.388;16.210;2023-06-14T14:32:24;25.30;88.80
45685;DHT22;46836;48.388;16.210;2023-06-14T14:34:52;25.40;90.10
45685;DHT22;46836;48.388;16.210;2023-06-14T14:37:19;25.70;90.40
45685;DHT22;46836;48.388;16.210;2023-06-14T14:39:46;25.90;88.80
45685;DHT22;46836;48.388;16.210;2023-06-14T14:42:13;26.10;89.40
45685;DHT22;46836;48.388;16.210;2023-06-14T14:44:40;26.10;86.70
45685;DHT22;46836;48.388;16.210;2023-06-14T14:47:07;26.20;87.30
45685;DHT22;46836;48.388;16.210;2023-06-14T14:49:34;26.20;87.40
45685;DHT22;46836;48.388;16.210;2023-06-14T14:52:04;26.20;84.00
45685;DHT22;46836;48.388;16.210;2023-06-14T14:54:49;26.10;84.90
45685;DHT22;46836;48.388;16.210;2023-06-14T14:57:16;26.00;84.40
45685;DHT22;46836;48.388;16.210;2023-06-14T14:59:43;26.20;86.70
45685;DHT22;46836;48.388;16.210;2023-06-14T15:02:10;26.40;87.00
45685;DHT22;46836;48.388;16.210;2023-06-14T15:04:38;26.40;85.50
45685;DHT22;46836;48.388;16.210;2023-06-14T15:07:05;26.60;86.60
45685;DHT22;46836;48.388;16.210;2023-06-14T15:09:33;26.80;86.50
45685;DHT22;46836;48.388;16.210;2023-06-14T15:12:00;26.90;85.70
45685;DHT22;46836;48.388;16.210;2023-06-14T15:14:28;26.90;83.80
45685;DHT22;46836;48.388;16.210;2023-06-14T15:16:55;26.80;84.70
45685;DHT22;46836;48.388;16.210;2023-06-14T15:19:25;26.50;84.50
45685;DHT22;46836;48.388;16.210;2023-06-14T15:21:52;26.30;85.50
45685;DHT22;46836;48.388;16.210;2023-06-14T15:24:19;26.20;85.60
45685;DHT22;46836;48.388;16.210;2023-06-14T15:27:04;26.10;85.00
45685;DHT22;46836;48.388;16.210;2023-06-14T15:29:31;25.90;85.40
45685;DHT22;46836;48.388;16.210;2023-06-14T15:31:58;25.30;85.70
45685;DHT22;46836;48.388;16.210;2023-06-14T15:34:28;25.00;89.50
45685;DHT22;46836;48.388;16.210;2023-06-14T15:36:55;24.60;90.80
45685;DHT22;46836;48.388;16.210;2023-06-14T15:39:23;24.50;91.30
45685;DHT22;46836;48.388;16.210;2023-06-14T15:41:51;24.30;91.40